createdAt,value
2023-04-28T00:00:56.698Z,266.60
2023-04-28T00:01:58.758Z,269.00
2023-04-28T00:03:03.637Z,264.15
2023-04-28T00:04:06.404Z,264.55
2023-04-28T00:05:12.532Z,259.77
2023-04-28T00:06:14.820Z,251.25
2023-04-28T00:07:19.437Z,256.90
2023-04-28T00:08:23.725Z,266.20
2023-04-28T00:09:28.436Z,257.73
2023-04-28T00:10:31.439Z,251.05
2023-04-28T00:11:38.757Z,244.88
2023-04-28T00:12:41.366Z,241.57
2023-04-28T00:13:46.003Z,172.40
2023-04-28T00:14:48.025Z,148.02
2023-04-28T00:15:53.226Z,147.38
2023-04-28T00:16:57.180Z,132.73
2023-04-28T00:18:01.916Z,98.18
2023-04-28T00:19:04.056Z,92.68
2023-04-28T00:20:10.299Z,136.68
2023-04-28T00:21:12.344Z,176.30
2023-04-28T00:22:16.991Z,197.75
2023-04-28T00:23:19.136Z,209.73
2023-04-28T00:24:23.804Z,204.27
2023-04-28T00:25:25.848Z,223.48
2023-04-28T00:26:31.723Z,222.30
2023-04-28T00:27:36.685Z,217.10
2023-04-28T00:28:41.529Z,211.50
2023-04-28T00:29:43.582Z,202.65
2023-04-28T00:30:45.591Z,201.35
2023-04-28T00:31:50.329Z,204.90
2023-04-28T00:32:52.734Z,185.55
2023-04-28T00:33:57.456Z,171.80
2023-04-28T00:34:59.583Z,188.50
2023-04-28T00:36:04.351Z,182.30
2023-04-28T00:37:06.506Z,168.70
2023-04-28T00:38:11.426Z,178.05
2023-04-28T00:39:13.477Z,167.75
2023-04-28T00:40:18.122Z,175.15
2023-04-28T00:41:20.138Z,181.55
2023-04-28T00:42:24.793Z,175.23
2023-04-28T00:43:29.749Z,180.55
2023-04-28T00:44:34.412Z,186.13
2023-04-28T00:45:36.837Z,193.57
2023-04-28T00:46:41.509Z,208.00
2023-04-28T00:47:43.727Z,210.32
2023-04-28T00:48:48.398Z,180.40
2023-04-28T00:49:50.538Z,169.35
2023-04-28T00:50:55.304Z,174.55
2023-04-28T00:51:57.873Z,157.63
2023-04-28T00:53:03.454Z,186.60
2023-04-28T00:54:06.897Z,184.38
2023-04-28T00:55:12.689Z,147.52
2023-04-28T00:56:15.099Z,113.72
2023-04-28T00:57:19.852Z,97.95
2023-04-28T00:58:22.162Z,101.95
2023-04-28T00:59:29.596Z,106.28
2023-04-28T01:00:31.765Z,114.00
2023-04-28T01:01:36.947Z,118.93
2023-04-28T01:02:39.456Z,119.32
2023-04-28T01:03:44.522Z,124.18
2023-04-28T01:04:47.459Z,113.00
2023-04-28T01:05:52.432Z,105.70
2023-04-28T01:06:56.518Z,29.88
2023-04-28T01:08:01.811Z,19.92
2023-04-28T01:09:05.909Z,16.90
2023-04-28T01:10:12.550Z,16.95
2023-04-28T01:11:14.710Z,19.02
2023-04-28T01:12:19.456Z,17.48
2023-04-28T01:13:21.608Z,16.88
2023-04-28T01:14:26.234Z,16.50
2023-04-28T01:15:31.344Z,17.50
2023-04-28T01:16:38.607Z,16.77
2023-04-28T01:17:40.791Z,16.42
2023-04-28T01:18:50.526Z,16.85
2023-04-28T01:19:53.242Z,20.23
2023-04-28T01:20:57.947Z,17.90
2023-04-28T01:22:00.149Z,19.35
2023-04-28T01:23:04.805Z,21.77
2023-04-28T01:24:09.479Z,17.35
2023-04-28T01:25:14.165Z,18.95
2023-04-28T01:26:16.295Z,53.50
2023-04-28T01:27:21.036Z,126.95
2023-04-28T01:28:23.106Z,121.70
2023-04-28T01:29:28.029Z,120.95
2023-04-28T01:30:30.069Z,125.20
2023-04-28T01:31:34.922Z,135.35
2023-04-28T01:32:37.051Z,133.15
2023-04-28T01:35:12.833Z,154.57
2023-04-28T01:36:14.934Z,51.60
2023-04-28T01:37:31.876Z,45.88
2023-04-28T01:38:33.988Z,54.97
2023-04-28T01:39:41.262Z,27.90
2023-04-28T01:40:43.385Z,26.75
2023-04-28T01:41:48.290Z,26.90
2023-04-28T01:42:50.395Z,30.52
2023-04-28T01:43:55.117Z,34.95
2023-04-28T01:44:57.182Z,24.10
2023-04-28T01:46:01.863Z,26.08
2023-04-28T01:47:04.116Z,22.13
2023-04-28T01:48:09.238Z,17.85
2023-04-28T01:49:11.319Z,23.77
2023-04-28T01:50:15.947Z,21.27
2023-04-28T01:51:18.090Z,21.45
2023-04-28T01:52:24.426Z,55.60
2023-04-28T01:53:26.595Z,39.22
2023-04-28T01:54:37.309Z,25.33
2023-04-28T01:55:41.948Z,38.58
2023-04-28T01:56:46.587Z,37.45
2023-04-28T01:57:48.599Z,44.63
2023-04-28T01:58:53.312Z,41.17
2023-04-28T01:59:55.579Z,27.75
2023-04-28T02:01:00.244Z,42.22
2023-04-28T02:02:02.350Z,45.15
2023-04-28T02:03:07.178Z,38.85
2023-04-28T02:04:09.487Z,39.58
2023-04-28T02:05:14.343Z,39.65
2023-04-28T02:06:16.406Z,39.58
2023-04-28T02:07:21.232Z,47.58
2023-04-28T02:08:23.299Z,46.20
2023-04-28T02:09:28.028Z,47.58
2023-04-28T02:10:30.341Z,49.58
2023-04-28T02:11:37.588Z,46.58
2023-04-28T02:12:40.481Z,52.40
2023-04-28T02:13:45.157Z,48.80
2023-04-28T02:14:47.418Z,49.22
2023-04-28T02:15:52.136Z,71.82
2023-04-28T02:16:54.291Z,58.58
2023-04-28T02:17:59.067Z,43.33
2023-04-28T02:19:01.268Z,42.40
2023-04-28T02:20:06.719Z,36.90
2023-04-28T02:21:10.261Z,40.33
2023-04-28T02:22:14.926Z,46.38
2023-04-28T02:23:16.983Z,64.60
2023-04-28T02:24:21.590Z,53.20
2023-04-28T02:25:23.653Z,54.80
2023-04-28T02:28:52.533Z,29.10
2023-04-28T02:29:54.634Z,29.02
2023-04-28T02:31:06.984Z,66.70
2023-04-28T02:32:09.158Z,38.20
2023-04-28T02:33:13.846Z,36.40
2023-04-28T02:34:16.178Z,35.25
2023-04-28T02:35:21.185Z,34.30
2023-04-28T02:36:23.263Z,35.92
2023-04-28T02:37:28.201Z,21.30
2023-04-28T02:38:31.674Z,22.67
2023-04-28T02:39:36.302Z,33.97
2023-04-28T02:40:38.404Z,32.47
2023-04-28T02:41:43.033Z,27.95
2023-04-28T02:42:45.039Z,24.08
2023-04-28T02:45:09.382Z,37.95
2023-04-28T02:46:12.009Z,27.77
2023-04-28T02:47:16.669Z,27.75
2023-04-28T02:48:18.795Z,32.63
2023-04-28T02:49:23.454Z,36.33
2023-04-28T02:50:25.486Z,33.65
2023-04-28T02:51:30.158Z,94.32
2023-04-28T02:52:32.192Z,117.50
2023-04-28T02:53:36.864Z,115.18
2023-04-28T02:54:38.920Z,106.28
2023-04-28T02:55:43.801Z,108.55
2023-04-28T02:56:48.619Z,135.50
2023-04-28T02:57:50.911Z,147.52
2023-04-28T02:58:55.643Z,170.00
2023-04-28T02:59:57.744Z,164.40
2023-04-28T03:03:06.433Z,171.60
2023-04-28T03:04:08.826Z,169.82
2023-04-28T03:05:13.726Z,168.80
2023-04-28T03:06:16.229Z,185.63
2023-04-28T03:07:20.917Z,193.70
2023-04-28T03:08:23.257Z,201.52
2023-04-28T03:09:27.904Z,199.40
2023-04-28T03:10:30.149Z,176.77
2023-04-28T03:11:34.795Z,175.55
2023-04-28T03:12:36.834Z,185.07
2023-04-28T03:13:41.833Z,185.27
2023-04-28T03:14:43.855Z,166.93
2023-04-28T03:15:48.544Z,173.30
2023-04-28T03:16:51.044Z,161.95
2023-04-28T03:17:55.808Z,145.65
2023-04-28T03:19:01.072Z,125.97
2023-04-28T03:20:05.883Z,121.85
2023-04-28T03:21:08.595Z,125.43
2023-04-28T03:22:13.327Z,117.07
2023-04-28T03:23:15.440Z,95.43
2023-04-28T03:24:20.317Z,96.53
2023-04-28T03:25:22.394Z,103.53
2023-04-28T03:26:27.131Z,114.40
2023-04-28T03:27:29.564Z,125.40
2023-04-28T03:28:34.870Z,120.88
2023-04-28T03:29:36.960Z,118.20
2023-04-28T03:30:41.732Z,115.43
2023-04-28T03:31:43.795Z,120.20
2023-04-28T03:32:48.553Z,106.85
2023-04-28T03:33:50.771Z,103.82
2023-04-28T03:34:58.008Z,99.60
2023-04-28T03:36:00.099Z,95.13
2023-04-28T03:37:04.807Z,103.72
2023-04-28T03:38:07.235Z,103.32
2023-04-28T03:39:11.946Z,111.30
2023-04-28T03:40:14.215Z,97.95
2023-04-28T03:41:18.898Z,61.70
2023-04-28T03:42:21.059Z,29.27
2023-04-28T03:43:25.748Z,23.33
2023-04-28T03:44:27.745Z,21.15
2023-04-28T03:45:32.507Z,21.48
2023-04-28T03:46:34.879Z,19.83
2023-04-28T03:47:39.678Z,23.40
2023-04-28T03:48:41.724Z,21.35
2023-04-28T03:49:46.363Z,22.80
2023-04-28T03:50:51.350Z,22.90
2023-04-28T03:51:56.186Z,22.55
2023-04-28T03:52:58.236Z,20.42
2023-04-28T03:54:02.941Z,21.50
2023-04-28T03:55:05.717Z,24.40
2023-04-28T03:57:32.623Z,18.00
2023-04-28T03:58:34.701Z,24.23
2023-04-28T03:59:39.380Z,20.70
2023-04-28T04:00:41.618Z,18.02
2023-04-28T04:01:46.439Z,20.25
2023-04-28T04:02:48.632Z,17.65
2023-04-28T04:03:53.718Z,17.88
2023-04-28T04:04:56.149Z,18.88
2023-04-28T04:06:03.712Z,21.33
2023-04-28T04:07:06.552Z,24.85
2023-04-28T04:08:11.209Z,26.65
2023-04-28T04:09:13.362Z,23.73
2023-04-28T04:10:17.989Z,25.88
2023-04-28T04:11:20.038Z,23.52
2023-04-28T04:12:24.787Z,32.28
2023-04-28T04:13:26.917Z,26.50
2023-04-28T04:14:31.622Z,25.58
2023-04-28T04:15:33.819Z,28.17
2023-04-28T04:16:39.405Z,31.88
2023-04-28T04:17:41.514Z,27.23
2023-04-28T04:18:46.391Z,32.50
2023-04-28T04:19:48.468Z,27.60
2023-04-28T04:20:54.431Z,26.33
2023-04-28T04:21:59.111Z,26.95
2023-04-28T04:23:04.758Z,33.75
2023-04-28T04:24:07.823Z,30.60
2023-04-28T04:25:12.770Z,40.55
2023-04-28T04:26:14.850Z,24.02
2023-04-28T04:27:19.632Z,27.95
2023-04-28T04:28:21.942Z,26.27
2023-04-28T04:29:26.610Z,25.88
2023-04-28T04:30:28.649Z,26.98
2023-04-28T04:31:33.375Z,28.65
2023-04-28T04:32:35.572Z,31.77
2023-04-28T04:33:40.327Z,30.75
2023-04-28T04:34:42.392Z,29.52
2023-04-28T04:35:47.429Z,27.27
2023-04-28T04:36:49.505Z,30.92
2023-04-28T04:37:56.907Z,27.05
2023-04-28T04:38:59.082Z,32.20
2023-04-28T04:40:03.913Z,31.30
2023-04-28T04:41:06.004Z,34.83
2023-04-28T04:42:24.242Z,35.88
2023-04-28T04:43:30.364Z,32.53
2023-04-28T04:44:32.457Z,28.02
2023-04-28T04:45:37.155Z,30.60
2023-04-28T04:46:39.341Z,31.80
2023-04-28T04:47:44.180Z,31.17
2023-04-28T04:48:46.281Z,31.92
2023-04-28T04:49:51.363Z,30.75
2023-04-28T04:50:53.482Z,23.85
2023-04-28T04:51:58.320Z,22.10
2023-04-28T04:53:03.002Z,27.95
2023-04-28T04:54:08.170Z,29.08
2023-04-28T04:55:11.525Z,28.40
2023-04-28T04:56:16.265Z,34.17
2023-04-28T04:57:18.396Z,22.80
2023-04-28T04:58:23.508Z,23.52
2023-04-28T04:59:25.636Z,27.23
2023-04-28T05:00:30.433Z,28.55
2023-04-28T05:01:32.608Z,25.38
2023-04-28T05:02:37.493Z,27.45
2023-04-28T05:03:39.962Z,31.13
2023-04-28T05:04:44.834Z,31.80
2023-04-28T05:05:47.200Z,44.22
2023-04-28T05:06:51.917Z,61.78
2023-04-28T05:07:54.045Z,21.27
2023-04-28T05:09:01.423Z,20.40
2023-04-28T05:10:03.589Z,32.35
2023-04-28T05:11:08.386Z,23.02
2023-04-28T05:12:10.559Z,23.10
2023-04-28T05:13:15.244Z,24.75
2023-04-28T05:14:17.932Z,21.83
2023-04-28T05:15:22.953Z,18.63
2023-04-28T05:16:27.698Z,22.25
2023-04-28T05:17:29.876Z,23.50
2023-04-28T05:18:34.708Z,23.38
2023-04-28T05:19:37.025Z,23.17
2023-04-28T05:20:41.734Z,20.73
2023-04-28T05:21:43.812Z,21.27
2023-04-28T05:22:48.691Z,18.52
2023-04-28T05:23:50.768Z,18.42
2023-04-28T05:24:58.299Z,17.88
2023-04-28T05:26:00.388Z,18.15
2023-04-28T05:27:32.323Z,58.00
2023-04-28T05:28:34.480Z,22.83
2023-04-28T05:29:39.165Z,21.60
2023-04-28T05:30:41.539Z,21.17
2023-04-28T05:31:46.292Z,21.40
2023-04-28T05:32:48.445Z,19.42
2023-04-28T05:33:53.120Z,19.50
2023-04-28T05:34:55.172Z,22.48
2023-04-28T05:35:59.970Z,19.70
2023-04-28T05:37:02.041Z,18.77
2023-04-28T05:38:07.224Z,22.92
2023-04-28T05:39:09.325Z,23.20
2023-04-28T05:40:16.929Z,20.90
2023-04-28T05:41:19.088Z,18.83
2023-04-28T05:42:23.807Z,23.35
2023-04-28T05:43:25.926Z,19.70
2023-04-28T05:44:30.663Z,17.80
2023-04-28T05:45:32.786Z,20.95
2023-04-28T05:46:37.610Z,19.02
2023-04-28T05:47:39.768Z,18.33
2023-04-28T05:48:44.528Z,17.20
2023-04-28T05:49:46.667Z,17.88
2023-04-28T05:50:51.434Z,16.00
2023-04-28T05:51:53.512Z,16.65
2023-04-28T05:52:58.496Z,15.32
2023-04-28T05:54:00.855Z,14.98
2023-04-28T05:55:05.511Z,16.77
2023-04-28T05:56:10.576Z,17.35
2023-04-28T05:57:15.391Z,16.55
2023-04-28T05:58:17.575Z,17.70
2023-04-28T05:59:22.598Z,15.65
2023-04-28T06:00:25.008Z,23.02
2023-04-28T06:01:29.715Z,16.58
2023-04-28T06:02:32.137Z,16.70
2023-04-28T06:03:37.171Z,18.48
2023-04-28T06:04:39.918Z,17.50
2023-04-28T06:05:45.176Z,21.45
2023-04-28T06:06:47.464Z,16.15
2023-04-28T06:07:54.472Z,17.17
2023-04-28T06:08:57.362Z,16.10
2023-04-28T06:10:02.047Z,16.08
2023-04-28T06:11:04.623Z,17.48
2023-04-28T06:12:12.085Z,21.08
2023-04-28T06:13:14.766Z,19.45
2023-04-28T06:14:20.109Z,18.17
2023-04-28T06:15:22.607Z,17.33
2023-04-28T06:16:27.398Z,16.95
2023-04-28T06:17:31.486Z,19.20
2023-04-28T06:18:36.280Z,19.10
2023-04-28T06:19:38.341Z,18.95
2023-04-28T06:20:43.039Z,17.52
2023-04-28T06:21:45.287Z,19.42
2023-04-28T06:22:49.963Z,16.55
2023-04-28T06:23:52.155Z,18.02
2023-04-28T06:24:56.958Z,17.35
2023-04-28T06:25:59.167Z,19.38
2023-04-28T06:27:03.824Z,47.65
2023-04-28T06:28:08.627Z,19.17
2023-04-28T06:29:13.393Z,20.27
2023-04-28T06:30:18.816Z,24.00
2023-04-28T06:31:23.543Z,17.38
2023-04-28T06:32:25.991Z,14.57
2023-04-28T06:33:30.757Z,19.77
2023-04-28T06:34:33.083Z,17.38
2023-04-28T06:35:39.289Z,16.92
2023-04-28T06:36:41.506Z,17.80
2023-04-28T06:37:46.417Z,17.15
2023-04-28T06:38:48.647Z,18.83
2023-04-28T06:39:53.289Z,16.10
2023-04-28T06:40:55.433Z,16.17
2023-04-28T06:42:02.092Z,18.83
2023-04-28T06:43:04.162Z,16.70
2023-04-28T06:44:11.438Z,18.48
2023-04-28T06:45:13.571Z,19.88
2023-04-28T06:46:18.226Z,17.73
2023-04-28T06:47:20.338Z,16.05
2023-04-28T06:48:26.244Z,17.88
2023-04-28T06:49:31.215Z,17.25
2023-04-28T06:50:36.397Z,17.70
2023-04-28T06:51:38.496Z,19.30
2023-04-28T06:52:43.186Z,19.77
2023-04-28T06:53:45.219Z,16.15
2023-04-28T06:54:49.862Z,20.25
2023-04-28T06:55:54.609Z,19.52
2023-04-28T06:56:59.360Z,16.60
2023-04-28T06:58:04.031Z,22.50
2023-04-28T06:59:08.740Z,19.10
2023-04-28T07:00:14.827Z,22.30
2023-04-28T07:01:19.632Z,24.00
2023-04-28T07:02:21.977Z,19.83
2023-04-28T07:03:26.960Z,17.58
2023-04-28T07:04:29.380Z,16.35
2023-04-28T07:07:35.541Z,179.65
2023-04-28T07:08:37.678Z,22.55
2023-04-28T07:09:42.350Z,18.60
2023-04-28T07:10:44.471Z,19.60
2023-04-28T07:11:49.135Z,18.67
2023-04-28T07:12:52.127Z,15.77
2023-04-28T07:13:56.817Z,20.67
2023-04-28T07:15:01.454Z,17.92
2023-04-28T07:16:06.807Z,18.20
2023-04-28T07:17:09.120Z,19.75
2023-04-28T07:18:13.784Z,21.17
2023-04-28T07:19:15.918Z,20.05
2023-04-28T07:20:20.757Z,20.85
2023-04-28T07:21:23.006Z,19.08
2023-04-28T07:22:27.862Z,15.52
2023-04-28T07:23:32.555Z,21.35
2023-04-28T07:24:35.053Z,22.15
2023-04-28T07:25:41.000Z,20.35
2023-04-28T07:26:52.809Z,58.25
2023-04-28T07:27:57.575Z,20.65
2023-04-28T07:28:59.612Z,21.27
2023-04-28T07:30:25.171Z,19.77
2023-04-28T07:31:31.910Z,19.95
2023-04-28T07:32:34.215Z,21.55
2023-04-28T07:33:38.873Z,26.25
2023-04-28T07:34:41.393Z,22.00
2023-04-28T07:35:46.203Z,19.23
2023-04-28T07:36:51.052Z,23.05
2023-04-28T07:37:53.548Z,21.98
2023-04-28T07:38:58.348Z,24.27
2023-04-28T07:40:00.832Z,27.42
2023-04-28T07:41:07.705Z,23.25
2023-04-28T07:42:12.440Z,28.38
2023-04-28T07:43:17.325Z,21.48
2023-04-28T07:44:19.771Z,26.00
2023-04-28T07:45:27.491Z,26.23
2023-04-28T07:46:29.865Z,21.67
2023-04-28T07:47:34.652Z,22.05
2023-04-28T07:48:39.391Z,22.85
2023-04-28T07:49:44.051Z,21.10
2023-04-28T07:50:46.108Z,22.55
2023-04-28T07:51:53.753Z,20.98
2023-04-28T07:52:58.485Z,18.70
2023-04-28T07:54:00.809Z,21.45
2023-04-28T07:55:05.567Z,25.88
2023-04-28T07:56:10.710Z,22.02
2023-04-28T07:57:12.800Z,23.40
2023-04-28T07:58:17.556Z,24.90
2023-04-28T07:59:19.703Z,24.33
2023-04-28T08:00:27.267Z,22.92
2023-04-28T08:01:29.764Z,20.63
2023-04-28T08:02:34.815Z,23.08
2023-04-28T08:03:37.347Z,25.33
2023-04-28T08:04:42.487Z,21.85
2023-04-28T08:05:45.492Z,23.67
2023-04-28T08:06:50.264Z,22.83
2023-04-28T08:07:52.345Z,21.45
2023-04-28T08:08:58.202Z,19.88
2023-04-28T08:10:01.337Z,26.90
2023-04-28T08:11:06.125Z,23.08
2023-04-28T08:12:08.231Z,23.73
2023-04-28T08:13:13.151Z,21.08
2023-04-28T08:14:15.468Z,23.83
2023-04-28T08:15:20.311Z,23.02
2023-04-28T08:16:27.699Z,21.52
2023-04-28T08:17:29.868Z,18.40
2023-04-28T08:18:34.936Z,20.52
2023-04-28T08:19:37.101Z,24.80
2023-04-28T08:20:41.868Z,19.98
2023-04-28T08:21:43.958Z,18.70
2023-04-28T08:22:48.988Z,20.10
2023-04-28T08:23:51.161Z,18.55
2023-04-28T08:24:55.978Z,19.67
2023-04-28T08:26:00.959Z,20.02
2023-04-28T08:27:03.884Z,60.47
2023-04-28T08:28:09.328Z,22.80
2023-04-28T08:29:13.979Z,21.40
2023-04-28T08:30:18.641Z,20.85
2023-04-28T08:31:20.801Z,19.95
2023-04-28T08:32:28.176Z,19.92
2023-04-28T08:33:32.818Z,19.67
2023-04-28T08:34:34.979Z,19.63
2023-04-28T08:35:39.694Z,20.38
2023-04-28T08:36:41.769Z,22.85
2023-04-28T08:37:46.614Z,19.70
2023-04-28T08:38:48.708Z,19.63
2023-04-28T08:40:00.217Z,18.45
2023-04-28T08:41:07.354Z,19.10
2023-04-28T08:42:09.551Z,20.20
2023-04-28T08:43:15.169Z,21.73
2023-04-28T08:44:18.020Z,20.80
2023-04-28T08:45:23.165Z,19.45
2023-04-28T08:46:28.388Z,19.73
2023-04-28T08:47:48.693Z,15.57
2023-04-28T08:49:02.636Z,17.40
2023-04-28T08:50:06.567Z,18.58
2023-04-28T08:51:11.908Z,17.23
2023-04-28T08:52:20.507Z,18.20
2023-04-28T08:53:30.291Z,18.92
2023-04-28T08:54:36.544Z,18.08
2023-04-28T08:55:42.268Z,18.60
2023-04-28T08:56:45.629Z,17.88
2023-04-28T08:57:54.282Z,18.58
2023-04-28T08:58:56.848Z,25.05
2023-04-28T09:00:02.116Z,21.20
2023-04-28T09:01:07.089Z,19.67
2023-04-28T09:02:12.085Z,24.15
2023-04-28T09:03:17.198Z,20.80
2023-04-28T09:04:22.466Z,23.08
2023-04-28T09:05:27.828Z,21.98
2023-04-28T09:06:33.078Z,17.52
2023-04-28T09:07:37.894Z,18.80
2023-04-28T09:08:42.898Z,20.33
2023-04-28T09:09:47.874Z,23.90
2023-04-28T09:11:09.099Z,32.15
2023-04-28T09:12:13.876Z,100.43
2023-04-28T09:13:28.472Z,179.52
2023-04-28T09:14:35.450Z,286.35
2023-04-28T09:15:41.253Z,455.35
2023-04-28T09:16:46.116Z,694.80
2023-04-28T09:17:49.200Z,695.97
2023-04-28T09:19:02.680Z,766.60
2023-04-28T09:20:20.151Z,743.90
2023-04-28T09:21:24.821Z,681.08
2023-04-28T09:22:28.808Z,411.73
2023-04-28T09:23:33.824Z,615.63
2023-04-28T09:24:40.661Z,293.55
2023-04-28T09:25:56.716Z,558.42
2023-04-28T09:27:31.693Z,642.30
2023-04-28T09:28:37.546Z,553.80
2023-04-28T09:29:52.068Z,556.03
2023-04-28T09:30:57.368Z,568.85
2023-04-28T09:32:18.416Z,552.30
2023-04-28T09:33:21.950Z,480.00
2023-04-28T09:34:26.797Z,568.75
2023-04-28T09:35:42.948Z,593.58
2023-04-28T09:36:47.781Z,534.92
2023-04-28T09:38:01.367Z,487.00
2023-04-28T09:39:06.059Z,513.95
2023-04-28T09:40:10.328Z,534.83
2023-04-28T09:41:14.997Z,520.17
2023-04-28T09:42:32.974Z,438.38
2023-04-28T09:43:38.516Z,293.05
2023-04-28T09:44:43.282Z,267.42
2023-04-28T09:45:46.065Z,278.67
2023-04-28T09:46:50.986Z,289.50
2023-04-28T09:47:53.174Z,259.55
2023-04-28T09:49:04.007Z,276.25
2023-04-28T09:50:09.875Z,131.48
2023-04-28T09:51:23.686Z,118.07
2023-04-28T09:52:26.463Z,180.35
2023-04-28T09:53:33.423Z,279.70
2023-04-28T09:54:38.575Z,144.43
2023-04-28T09:55:44.586Z,502.95
2023-04-28T09:58:53.595Z,560.35
2023-04-28T09:59:58.907Z,662.60
2023-04-28T10:01:01.517Z,662.42
2023-04-28T10:02:22.617Z,705.55
2023-04-28T10:03:34.344Z,704.30
2023-04-28T10:04:37.075Z,721.78
2023-04-28T10:05:43.784Z,723.80
2023-04-28T10:06:51.867Z,745.08
2023-04-28T10:07:55.602Z,754.85
2023-04-28T10:09:01.694Z,710.08
2023-04-28T10:10:05.633Z,698.75
2023-04-28T10:11:11.736Z,721.83
2023-04-28T10:12:14.422Z,742.63
2023-04-28T10:13:20.472Z,747.47
2023-04-28T10:14:23.319Z,757.45
2023-04-28T10:16:01.843Z,729.72
2023-04-28T10:17:07.802Z,718.65
2023-04-28T10:18:10.889Z,719.50
2023-04-28T10:19:15.758Z,752.50
2023-04-28T10:20:18.952Z,764.00
2023-04-28T10:21:26.359Z,774.22
2023-04-28T10:22:48.251Z,787.22
2023-04-28T10:24:06.804Z,755.75
2023-04-28T10:25:28.059Z,750.03
2023-04-28T10:27:10.758Z,730.22
2023-04-28T10:30:27.476Z,593.25
2023-04-28T10:31:35.106Z,552.17
2023-04-28T10:32:39.941Z,540.53
2023-04-28T10:33:42.692Z,574.53
2023-04-28T10:34:47.567Z,654.55
2023-04-28T10:35:50.049Z,675.95
2023-04-28T10:36:56.037Z,663.05
2023-04-28T10:38:08.552Z,752.78
2023-04-28T10:39:15.491Z,715.00
2023-04-28T10:40:33.412Z,759.42
2023-04-28T10:41:38.521Z,683.10
2023-04-28T10:42:53.889Z,742.00
2023-04-28T10:43:58.542Z,705.17
2023-04-28T10:45:00.650Z,731.33
2023-04-28T10:46:07.063Z,761.65
2023-04-28T10:47:10.396Z,756.88
2023-04-28T10:48:15.110Z,766.45
2023-04-28T10:49:20.009Z,768.58
2023-04-28T10:50:29.296Z,776.00
2023-04-28T10:51:42.975Z,705.40
2023-04-28T10:52:51.503Z,710.47
2023-04-28T10:54:18.312Z,692.35
2023-04-28T10:55:37.713Z,704.38
2023-04-28T10:56:41.874Z,438.58
2023-04-28T10:57:47.407Z,354.52
2023-04-28T10:58:50.902Z,339.65
2023-04-28T11:00:15.928Z,278.73
2023-04-28T11:01:29.947Z,280.90
2023-04-28T11:02:46.418Z,183.98
2023-04-28T11:03:51.963Z,230.48
2023-04-28T11:05:22.030Z,125.05
2023-04-28T11:06:26.810Z,433.48
2023-04-28T11:07:31.625Z,678.65
2023-04-28T11:09:55.178Z,691.33
2023-04-28T11:11:33.829Z,653.90
2023-04-28T11:12:38.758Z,706.92
2023-04-28T11:13:42.446Z,685.53
2023-04-28T11:14:47.377Z,733.03
2023-04-28T11:16:03.406Z,493.00
2023-04-28T11:17:09.452Z,744.08
2023-04-28T11:18:19.530Z,753.20
2023-04-28T11:19:25.804Z,714.42
2023-04-28T11:20:29.207Z,787.22
2023-04-28T11:21:35.825Z,748.63
2023-04-28T11:22:38.164Z,688.10
2023-04-28T11:23:42.883Z,609.78
2023-04-28T11:25:01.759Z,667.92
2023-04-28T11:26:04.014Z,647.72
2023-04-28T11:27:27.373Z,621.50
2023-04-28T11:28:29.460Z,566.40
2023-04-28T11:29:36.255Z,462.27
2023-04-28T11:30:38.435Z,421.65
2023-04-28T11:31:44.405Z,353.63
2023-04-28T11:32:50.836Z,449.55
2023-04-28T11:34:05.530Z,225.88
2023-04-28T11:35:11.814Z,45.63
2023-04-28T11:36:30.401Z,381.25
2023-04-28T11:39:37.559Z,528.95
2023-04-28T11:40:57.065Z,628.70
2023-04-28T11:42:02.826Z,707.75
2023-04-28T11:43:05.073Z,699.25
2023-04-28T11:44:14.249Z,632.88
2023-04-28T11:45:16.418Z,736.33
2023-04-28T11:46:22.371Z,799.55
2023-04-28T11:47:34.520Z,760.63
2023-04-28T11:48:36.902Z,522.42
2023-04-28T11:49:49.728Z,553.17
2023-04-28T11:50:52.457Z,355.55
2023-04-28T11:52:00.474Z,394.08
2023-04-28T11:53:02.811Z,545.10
2023-04-28T11:54:12.052Z,618.45
2023-04-28T11:55:19.931Z,516.90
2023-04-28T11:56:24.579Z,605.25
2023-04-28T11:57:29.247Z,694.47
2023-04-28T11:58:31.306Z,695.85
2023-04-28T11:59:38.327Z,106.72
2023-04-28T12:00:42.037Z,141.20
2023-04-28T12:01:52.133Z,92.55
2023-04-28T12:02:57.878Z,28.67
2023-04-28T12:04:00.535Z,35.22
2023-04-28T12:05:11.017Z,253.00
2023-04-28T12:06:17.739Z,77.03
2023-04-28T12:07:22.721Z,46.92
2023-04-28T12:08:28.836Z,19.58
2023-04-28T12:09:34.119Z,18.00
2023-04-28T12:13:33.251Z,20.73
2023-04-28T12:14:59.762Z,20.08
2023-04-28T12:16:03.803Z,19.42
2023-04-28T12:17:08.454Z,22.80
2023-04-28T12:20:07.337Z,21.95
2023-04-28T12:21:21.821Z,17.38
2023-04-28T12:22:27.260Z,21.20
2023-04-28T12:23:31.188Z,24.27
2023-04-28T12:24:36.459Z,19.50
2023-04-28T12:25:44.094Z,19.65
2023-04-28T12:26:49.556Z,73.55
2023-04-28T12:28:04.871Z,19.45
2023-04-28T12:29:10.898Z,18.33
2023-04-28T12:30:28.322Z,22.05
2023-04-28T12:31:30.448Z,22.63
2023-04-28T12:32:43.647Z,18.95
2023-04-28T12:33:45.812Z,18.02
2023-04-28T12:35:05.312Z,16.70
2023-04-28T12:36:07.893Z,17.55
2023-04-28T12:37:12.793Z,17.15
2023-04-28T12:38:16.086Z,22.50
2023-04-28T12:39:23.212Z,20.33
2023-04-28T12:40:28.187Z,19.92
2023-04-28T12:41:30.282Z,22.45
2023-04-28T12:42:35.136Z,15.07
2023-04-28T12:43:37.225Z,19.67
2023-04-28T12:44:44.567Z,16.38
2023-04-28T12:45:46.786Z,13.30
2023-04-28T12:46:51.810Z,16.13
2023-04-28T12:49:24.655Z,17.95
2023-04-28T12:50:32.535Z,11.05
2023-04-28T12:51:36.664Z,15.57
2023-04-28T12:52:43.467Z,18.63
2023-04-28T12:53:45.554Z,15.75
2023-04-28T12:54:50.357Z,18.52
2023-04-28T12:55:52.532Z,14.38
2023-04-28T12:56:57.571Z,14.88
2023-04-28T12:57:59.782Z,19.85
2023-04-28T12:59:06.565Z,14.00
2023-04-28T13:00:16.496Z,15.45
2023-04-28T13:01:21.183Z,18.35
2023-04-28T13:02:26.161Z,184.15
2023-04-28T13:03:28.862Z,689.95
2023-04-28T13:04:34.269Z,670.08
2023-04-28T13:05:36.609Z,149.23
2023-04-28T13:06:44.467Z,127.43
2023-04-28T13:07:50.207Z,127.40
2023-04-28T13:08:52.295Z,117.50
2023-04-28T13:09:58.693Z,131.00
2023-04-28T13:11:02.975Z,138.88
2023-04-28T13:12:09.728Z,153.93
2023-04-28T13:13:11.986Z,134.05
2023-04-28T13:14:16.629Z,132.80
2023-04-28T13:15:21.623Z,124.70
2023-04-28T13:16:29.262Z,147.43
2023-04-28T13:17:34.141Z,304.23
2023-04-28T13:18:36.288Z,244.85
2023-04-28T13:19:41.200Z,222.82
2023-04-28T13:20:43.493Z,226.68
2023-04-28T13:21:48.842Z,210.38
2023-04-28T13:22:50.932Z,207.07
2023-04-28T13:23:56.189Z,202.00
2023-04-28T13:24:58.524Z,191.23
2023-04-28T13:26:04.465Z,262.67
2023-04-28T13:27:10.358Z,290.45
2023-04-28T13:28:13.648Z,298.42
2023-04-28T13:29:18.343Z,339.95
2023-04-28T13:30:23.114Z,263.02
2023-04-28T13:31:27.942Z,250.18
2023-04-28T13:32:30.038Z,18.90
2023-04-28T13:33:34.815Z,20.60
2023-04-28T13:34:40.308Z,13.65
2023-04-28T13:35:42.520Z,11.23
2023-04-28T13:36:48.319Z,20.25
2023-04-28T13:37:50.411Z,11.13
2023-04-28T13:38:55.095Z,16.13
2023-04-28T13:39:58.368Z,10.15
2023-04-28T13:41:03.233Z,29.52
2023-04-28T13:42:06.307Z,17.42
2023-04-28T13:43:10.986Z,16.67
2023-04-28T13:44:13.317Z,12.43
2023-04-28T13:45:19.556Z,22.35
2023-04-28T13:46:25.400Z,143.35
2023-04-28T13:47:32.827Z,326.48
2023-04-28T13:48:36.626Z,130.02
2023-04-28T13:49:41.342Z,232.02
2023-04-28T13:50:43.489Z,833.20
2023-04-28T13:51:48.374Z,907.30
2023-04-28T13:52:51.178Z,941.35
2023-04-28T13:53:55.945Z,856.05
2023-04-28T13:54:58.047Z,884.92
2023-04-28T13:56:03.552Z,923.17
2023-04-28T13:57:08.470Z,14.13
2023-04-28T13:58:10.690Z,49.72
2023-04-28T13:59:17.005Z,264.30
2023-04-28T14:00:20.572Z,406.20
2023-04-28T14:01:28.173Z,277.85
2023-04-28T14:02:31.929Z,188.07
2023-04-28T14:03:37.631Z,76.60
2023-04-28T14:04:40.337Z,19.05
2023-04-28T14:05:49.503Z,15.75
2023-04-28T14:06:56.076Z,17.35
2023-04-28T14:07:58.175Z,27.25
2023-04-28T14:09:03.709Z,15.07
2023-04-28T14:10:06.510Z,11.82
2023-04-28T14:11:12.157Z,15.60
2023-04-28T14:12:15.541Z,12.02
2023-04-28T14:13:20.700Z,12.57
2023-04-28T14:14:23.006Z,16.70
2023-04-28T14:15:27.834Z,11.50